Time;durP1;ratioP1;P1;durP2;ratioP2;P2;SDS_P1;SDS_P2;PMS_P1;PMS_P2;Temp;Humidity;BMP_temperature;BMP_pressure;BME280_temperature;BME280_humidity;BME280_pressure;Samples;Min_cycle;Max_cycle;Signal;HPM_P1;HPM_P2
2021/12/04 00:02:19;;;;;;;61.97;15.52;;;;;;;;;;5035772;28;20123;-90
2021/12/04 00:04:48;;;;;;;75.07;17.15;;;;;;;;;;5053872;28;20532;-90
2021/12/04 00:07:13;;;;;;;80.75;16.05;;;;;;;;;;5053528;28;20017;-90
2021/12/04 00:09:39;;;;;;;75.55;16.08;;;;;;;;;;5054785;28;20036;-89
2021/12/04 00:12:06;;;;;;;86.40;16.42;;;;;;;;;;5036410;28;20031;-90
2021/12/04 00:14:32;;;;;;;64.07;13.98;;;;;;;;;;5035248;28;20076;-90
2021/12/04 00:16:57;;;;;;;62.60;14.95;;;;;;;;;;5053295;28;20025;-89
2021/12/04 00:19:24;;;;;;;62.22;13.23;;;;;;;;;;5053388;28;20350;-89
2021/12/04 00:21:49;;;;;;;55.72;12.68;;;;;;;;;;5053452;28;20052;-89
2021/12/04 00:24:14;;;;;;;60.58;12.70;;;;;;;;;;5035384;28;20060;-89
2021/12/04 00:26:39;;;;;;;72.05;13.50;;;;;;;;;;5035365;28;20025;-89
2021/12/04 00:29:04;;;;;;;50.90;11.05;;;;;;;;;;5053265;28;20029;-89
2021/12/04 00:31:30;;;;;;;68.20;12.48;;;;;;;;;;5053186;28;20028;-89
2021/12/04 00:33:55;;;;;;;82.80;14.15;;;;;;;;;;5053009;28;20037;-89
2021/12/04 00:36:34;;;;;;;63.58;11.70;;;;;;;;;;5035571;28;20029;-89
2021/12/04 00:49:55;;;;;;;29.70;7.32;;;;;;;;;;5053365;28;20853;-89
2021/12/04 00:52:21;;;;;;;32.85;6.32;;;;;;;;;;5052758;28;20115;-89
2021/12/04 00:54:46;;;;;;;36.47;6.72;;;;;;;;;;5052808;28;20032;-89
2021/12/04 00:57:11;;;;;;;41.15;6.07;;;;;;;;;;5052868;28;20025;-89
2021/12/04 00:59:37;;;;;;;31.90;7.07;;;;;;;;;;5037086;28;20029;-88
2021/12/04 01:02:02;;;;;;;29.25;5.65;;;;;;;;;;5034727;28;20677;-89
2021/12/04 01:04:27;;;;;;;28.05;6.10;;;;;;;;;;5051937;28;20047;-89
2021/12/04 01:06:53;;;;;;;45.10;6.93;;;;;;;;;;5052294;28;20024;-89
2021/12/04 01:09:19;;;;;;;53.17;7.55;;;;;;;;;;5034335;28;20025;-89
2021/12/04 01:11:45;;;;;;;43.85;8.00;;;;;;;;;;5052286;28;20461;-89
2021/12/04 01:14:11;;;;;;;54.30;8.70;;;;;;;;;;5052537;28;20031;-89
2021/12/04 01:16:37;;;;;;;52.45;9.57;;;;;;;;;;5034422;28;20064;-89
2021/12/04 01:19:02;;;;;;;52.67;9.25;;;;;;;;;;5052023;28;20017;-89
2021/12/04 01:21:28;;;;;;;44.47;8.73;;;;;;;;;;5052191;28;20021;-89
2021/12/04 01:23:55;;;;;;;43.25;8.75;;;;;;;;;;5034039;28;20021;-89
2021/12/04 01:26:20;;;;;;;42.72;6.88;;;;;;;;;;5052291;28;20024;-89
2021/12/04 01:28:45;;;;;;;45.35;7.88;;;;;;;;;;5051666;28;20473;-90
2021/12/04 01:31:10;;;;;;;55.03;8.68;;;;;;;;;;5036479;28;20052;-89
2021/12/04 01:33:36;;;;;;;48.78;8.65;;;;;;;;;;5051768;28;20083;-90
2021/12/04 01:36:01;;;;;;;48.92;8.52;;;;;;;;;;5033944;28;20024;-90
2021/12/04 01:38:26;;;;;;;42.65;7.18;;;;;;;;;;5051770;28;20017;-90
2021/12/04 01:40:52;;;;;;;38.88;7.70;;;;;;;;;;5051988;28;20057;-90
2021/12/04 01:43:17;;;;;;;48.45;7.70;;;;;;;;;;5033580;28;20025;-90
2021/12/04 01:45:43;;;;;;;54.20;9.48;;;;;;;;;;5033542;28;20040;-90
2021/12/04 01:48:08;;;;;;;45.00;6.85;;;;;;;;;;5034613;28;20013;-90
2021/12/04 01:50:34;;;;;;;38.97;7.95;;;;;;;;;;5051694;28;20021;-90
2021/12/04 01:53:00;;;;;;;46.10;7.57;;;;;;;;;;5051391;28;20044;-90
2021/12/04 01:55:26;;;;;;;39.88;7.43;;;;;;;;;;5051514;28;20016;-90
2021/12/04 01:57:51;;;;;;;54.05;9.18;;;;;;;;;;5033649;28;20025;-89
2021/12/04 02:00:16;;;;;;;53.00;8.23;;;;;;;;;;5033658;28;20021;-90
2021/12/04 02:02:41;;;;;;;38.50;7.55;;;;;;;;;;5033570;28;20025;-90
2021/12/04 02:05:07;;;;;;;47.97;9.82;;;;;;;;;;5054374;28;20028;-89
2021/12/04 02:07:32;;;;;;;58.63;11.48;;;;;;;;;;5035605;28;20029;-89
2021/12/04 02:09:57;;;;;;;62.95;11.60;;;;;;;;;;5033445;28;20028;-90
2021/12/04 02:12:23;;;;;;;73.72;14.20;;;;;;;;;;5033277;28;20021;-90
2021/12/04 02:14:48;;;;;;;74.07;15.43;;;;;;;;;;5032817;28;20477;-89
2021/12/04 02:17:13;;;;;;;85.60;14.73;;;;;;;;;;5050684;28;20453;-90
2021/12/04 02:19:39;;;;;;;74.45;15.88;;;;;;;;;;5050930;28;20330;-90
2021/12/04 02:22:05;;;;;;;91.70;17.65;;;;;;;;;;5033322;28;20024;-90
2021/12/04 02:24:30;;;;;;;61.97;15.70;;;;;;;;;;5033682;28;20029;-90
2021/12/04 02:26:55;;;;;;;52.88;13.95;;;;;;;;;;5050939;28;20037;-90
2021/12/04 02:29:20;;;;;;;82.47;19.40;;;;;;;;;;5032987;28;20116;-90
2021/12/04 02:31:50;;;;;;;86.57;21.13;;;;;;;;;;5032756;28;20079;-90
2021/12/04 02:34:26;;;;;;;99.82;22.13;;;;;;;;;;5033083;28;20043;-90
2021/12/04 02:36:51;;;;;;;98.60;23.65;;;;;;;;;;5050800;28;20865;-90
2021/12/04 02:39:26;;;;;;;86.80;20.55;;;;;;;;;;5033725;28;20052;-89
2021/12/04 02:41:51;;;;;;;114.60;25.38;;;;;;;;;;5032701;28;20057;-90
2021/12/04 02:44:17;;;;;;;124.10;28.75;;;;;;;;;;5032954;28;20044;-90
2021/12/04 02:46:42;;;;;;;82.50;21.48;;;;;;;;;;5050762;28;20021;-90
2021/12/04 02:49:09;;;;;;;136.27;26.33;;;;;;;;;;5032900;28;20021;-90
2021/12/04 02:51:34;;;;;;;108.97;24.98;;;;;;;;;;5052464;28;20108;-90
2021/12/04 02:54:00;;;;;;;115.50;25.13;;;;;;;;;;5032491;28;20131;-89
2021/12/04 02:56:26;;;;;;;88.95;22.30;;;;;;;;;;5032473;28;20035;-90
2021/12/04 02:58:54;;;;;;;84.75;20.85;;;;;;;;;;5032578;28;20023;-90
2021/12/04 03:01:20;;;;;;;101.22;23.38;;;;;;;;;;5032993;28;20016;-90
2021/12/04 03:03:45;;;;;;;118.95;24.75;;;;;;;;;;5050397;28;20029;-90
2021/12/04 03:06:10;;;;;;;115.00;25.17;;;;;;;;;;5051245;28;20017;-89
2021/12/04 03:08:35;;;;;;;99.70;24.88;;;;;;;;;;5050385;28;20782;-89
2021/12/04 03:11:00;;;;;;;128.77;26.15;;;;;;;;;;5051381;28;20104;-88
2021/12/04 03:13:26;;;;;;;104.45;24.27;;;;;;;;;;5055877;28;20120;-89
2021/12/04 03:16:00;;;;;;;124.68;24.13;;;;;;;;;;5032301;28;20055;-90
2021/12/04 03:18:28;;;;;;;92.13;23.20;;;;;;;;;;5050266;28;20117;-90
2021/12/04 03:20:55;;;;;;;108.50;24.38;;;;;;;;;;5032334;28;20064;-89
2021/12/04 03:23:30;;;;;;;109.85;24.58;;;;;;;;;;5050178;28;20085;-90
2021/12/04 03:25:58;;;;;;;88.88;22.45;;;;;;;;;;5033317;28;20732;-89
2021/12/04 03:28:23;;;;;;;90.00;23.75;;;;;;;;;;5053352;28;20791;-89
2021/12/04 03:30:54;;;;;;;112.93;25.88;;;;;;;;;;5054458;28;20372;-89
2021/12/04 03:35:18;;;;;;;107.15;25.40;;;;;;;;;;5036391;28;20033;-89
2021/12/04 03:41:39;;;;;;;108.55;27.17;;;;;;;;;;5054501;28;20187;-90
2021/12/04 03:44:04;;;;;;;175.40;34.20;;;;;;;;;;5036103;28;20131;-90
2021/12/04 03:46:29;;;;;;;186.10;35.28;;;;;;;;;;5054182;28;20252;-90
2021/12/04 03:48:55;;;;;;;208.10;36.08;;;;;;;;;;5036097;28;20025;-89
2021/12/04 03:51:20;;;;;;;270.25;40.58;;;;;;;;;;5053887;28;20025;-90
2021/12/04 03:53:45;;;;;;;260.88;39.92;;;;;;;;;;5036808;28;20071;-89
2021/12/04 03:56:12;;;;;;;265.63;41.17;;;;;;;;;;5053860;28;20021;-89
2021/12/04 03:58:38;;;;;;;314.15;41.65;;;;;;;;;;5053566;28;20021;-89
2021/12/04 04:01:04;;;;;;;338.33;44.78;;;;;;;;;;5035917;28;20116;-89
2021/12/04 04:03:29;;;;;;;251.70;39.90;;;;;;;;;;5035569;28;20509;-89
2021/12/04 04:05:55;;;;;;;265.58;40.50;;;;;;;;;;5035888;28;20031;-89
2021/12/04 04:08:21;;;;;;;274.45;45.72;;;;;;;;;;5035684;28;20785;-90
2021/12/04 04:10:48;;;;;;;233.38;46.50;;;;;;;;;;5035688;28;20028;-89
2021/12/04 04:13:13;;;;;;;240.88;45.65;;;;;;;;;;5035796;28;20071;-89
2021/12/04 04:15:39;;;;;;;283.40;50.90;;;;;;;;;;5035319;28;20076;-89
2021/12/04 04:18:05;;;;;;;274.63;52.83;;;;;;;;;;5053278;28;20255;-89
2021/12/04 04:20:31;;;;;;;301.58;54.38;;;;;;;;;;5035498;28;20094;-89
2021/12/04 04:22:56;;;;;;;306.90;55.15;;;;;;;;;;5053331;28;20389;-89
2021/12/04 04:25:21;;;;;;;311.23;54.63;;;;;;;;;;5035428;28;20083;-89
2021/12/04 04:27:46;;;;;;;347.13;58.90;;;;;;;;;;5035154;28;20271;-90
2021/12/04 04:30:14;;;;;;;267.83;52.35;;;;;;;;;;5036061;28;20025;-89
2021/12/04 04:32:39;;;;;;;275.63;52.67;;;;;;;;;;5053164;28;20432;-89
2021/12/04 04:35:14;;;;;;;281.48;52.67;;;;;;;;;;5053225;28;20025;-89
2021/12/04 04:57:20;;;;;;;269.25;53.28;;;;;;;;;;5052414;28;20040;-89
2021/12/04 05:02:34;;;;;;;437.17;70.20;;;;;;;;;;5052777;28;20031;-90
2021/12/04 05:13:04;;;;;;;423.33;74.68;;;;;;;;;;5052596;28;20044;-89
2021/12/04 05:21:06;;;;;;;383.90;68.03;;;;;;;;;;5052791;28;20087;-90
2021/12/04 05:23:31;;;;;;;397.10;71.28;;;;;;;;;;5052258;28;20024;-89
2021/12/04 05:25:57;;;;;;;381.65;71.43;;;;;;;;;;5035490;28;20029;-89
2021/12/04 05:28:22;;;;;;;407.95;70.88;;;;;;;;;;5051984;28;20036;-89
2021/12/04 05:30:48;;;;;;;312.60;64.18;;;;;;;;;;5052032;28;20017;-89
2021/12/04 05:33:14;;;;;;;216.23;53.10;;;;;;;;;;5051944;28;20029;-89
2021/12/04 05:35:39;;;;;;;287.23;63.08;;;;;;;;;;5051933;28;20051;-89
2021/12/04 05:38:04;;;;;;;217.48;52.72;;;;;;;;;;5051959;28;20112;-89
2021/12/04 05:40:29;;;;;;;268.23;56.22;;;;;;;;;;5051617;28;20056;-89
2021/12/04 05:43:00;;;;;;;262.73;57.28;;;;;;;;;;5033707;28;20115;-89
2021/12/04 05:45:27;;;;;;;280.95;56.80;;;;;;;;;;5052015;28;20029;-89
2021/12/04 05:48:02;;;;;;;254.63;56.50;;;;;;;;;;5056040;28;20040;-90
2021/12/04 05:50:59;;;;;;;251.60;54.15;;;;;;;;;;5051313;28;20036;-89
2021/12/04 05:53:17;;;;;;;247.95;50.92;;;;;;;;;;5050104;28;20085;-90
2021/12/04 05:55:52;;;;;;;210.52;55.28;;;;;;;;;;5052233;28;20075;-89
2021/12/04 05:58:22;;;;;;;297.33;60.75;;;;;;;;;;5033579;28;20028;-89
2021/12/04 06:00:47;;;;;;;342.52;64.15;;;;;;;;;;5052001;28;20469;-89
2021/12/04 06:03:12;;;;;;;274.27;59.63;;;;;;;;;;5051345;28;20029;-89
2021/12/04 06:05:38;;;;;;;432.13;67.60;;;;;;;;;;5033385;28;20021;-89
2021/12/04 06:08:03;;;;;;;360.83;65.88;;;;;;;;;;5033377;28;20060;-89
2021/12/04 06:10:29;;;;;;;379.90;67.78;;;;;;;;;;5051600;28;20036;-89
2021/12/04 06:12:54;;;;;;;373.55;63.13;;;;;;;;;;5052790;28;20115;-89
2021/12/04 06:15:19;;;;;;;367.27;69.00;;;;;;;;;;5033069;28;20048;-89
2021/12/04 06:17:45;;;;;;;387.20;67.60;;;;;;;;;;5051505;28;20025;-89
2021/12/04 06:22:54;;;;;;;376.25;65.60;;;;;;;;;;5051714;28;20031;-90
2021/12/04 06:25:20;;;;;;;334.93;63.93;;;;;;;;;;5033324;28;20043;-89
2021/12/04 06:27:46;;;;;;;271.67;56.22;;;;;;;;;;5035873;28;20751;-89
2021/12/04 06:30:13;;;;;;;337.88;62.42;;;;;;;;;;5033151;28;20021;-89
2021/12/04 06:32:38;;;;;;;329.48;62.30;;;;;;;;;;5051293;28;20558;-89
2021/12/04 06:35:04;;;;;;;341.27;63.72;;;;;;;;;;5032732;28;20041;-89
2021/12/04 06:37:29;;;;;;;406.48;68.10;;;;;;;;;;5033184;28;20028;-89
2021/12/04 06:39:55;;;;;;;274.13;55.38;;;;;;;;;;5032533;28;20465;-89
2021/12/04 06:42:20;;;;;;;328.38;59.80;;;;;;;;;;5033010;28;20021;-89
2021/12/04 06:44:45;;;;;;;443.10;68.43;;;;;;;;;;5033545;28;20052;-88
2021/12/04 06:47:10;;;;;;;335.27;61.88;;;;;;;;;;5035203;28;20259;-89
2021/12/04 06:49:40;;;;;;;432.43;64.87;;;;;;;;;;5034654;28;20071;-89
2021/12/04 06:52:09;;;;;;;273.58;54.97;;;;;;;;;;5032495;28;20324;-89
2021/12/04 06:54:38;;;;;;;364.77;64.35;;;;;;;;;;5032879;28;20033;-89
2021/12/04 06:57:07;;;;;;;313.65;56.30;;;;;;;;;;5050558;28;20017;-89
2021/12/04 06:59:33;;;;;;;328.02;58.13;;;;;;;;;;5050678;28;20024;-89
2021/12/04 07:01:58;;;;;;;312.67;56.72;;;;;;;;;;5031819;28;20031;-89
2021/12/04 07:04:29;;;;;;;252.45;52.90;;;;;;;;;;5050510;28;20061;-89
2021/12/04 07:06:55;;;;;;;230.23;48.65;;;;;;;;;;5050693;28;20091;-89
2021/12/04 07:09:20;;;;;;;293.27;53.50;;;;;;;;;;5032466;28;20501;-89
2021/12/04 07:11:45;;;;;;;339.58;56.70;;;;;;;;;;5050536;28;20047;-89
2021/12/04 07:14:10;;;;;;;286.33;53.70;;;;;;;;;;5050164;28;20400;-89
2021/12/04 07:16:36;;;;;;;183.73;46.63;;;;;;;;;;5049924;28;20040;-89
2021/12/04 07:19:01;;;;;;;277.65;52.13;;;;;;;;;;5050341;28;20021;-89
2021/12/04 07:21:26;;;;;;;280.48;52.50;;;;;;;;;;5031918;28;20021;-89
2021/12/04 07:23:51;;;;;;;298.20;54.28;;;;;;;;;;5031842;28;20029;-89
2021/12/04 07:26:17;;;;;;;286.85;52.50;;;;;;;;;;5050051;28;20095;-89
2021/12/04 07:28:42;;;;;;;229.70;49.55;;;;;;;;;;5033258;28;20017;-89
2021/12/04 07:31:08;;;;;;;249.95;50.35;;;;;;;;;;5050327;28;20040;-89
2021/12/04 07:33:33;;;;;;;244.23;53.03;;;;;;;;;;5032034;28;20036;-89
2021/12/04 07:35:59;;;;;;;259.88;52.92;;;;;;;;;;5032608;28;20025;-89
2021/12/04 07:38:24;;;;;;;225.73;48.55;;;;;;;;;;5050014;28;20025;-89
2021/12/04 07:40:49;;;;;;;264.27;51.17;;;;;;;;;;5032001;28;20025;-89
2021/12/04 07:43:15;;;;;;;294.92;52.30;;;;;;;;;;5050011;28;20527;-89
2021/12/04 07:45:41;;;;;;;271.90;52.33;;;;;;;;;;5050063;28;20019;-89
2021/12/04 07:48:06;;;;;;;289.60;53.85;;;;;;;;;;5050002;28;20508;-89
2021/12/04 07:50:32;;;;;;;327.15;55.88;;;;;;;;;;5032028;28;20469;-89
2021/12/04 07:52:58;;;;;;;374.00;58.38;;;;;;;;;;5032207;28;20032;-89
2021/12/04 07:55:23;;;;;;;191.48;45.97;;;;;;;;;;5049998;28;20017;-89
2021/12/04 07:57:48;;;;;;;294.10;50.97;;;;;;;;;;5033791;28;20412;-89
2021/12/04 08:00:15;;;;;;;282.60;51.40;;;;;;;;;;5032259;28;20028;-89
2021/12/04 08:02:41;;;;;;;337.33;55.63;;;;;;;;;;5049622;28;20256;-89
2021/12/04 08:05:08;;;;;;;282.30;51.22;;;;;;;;;;5049674;28;20017;-88
2021/12/04 08:07:33;;;;;;;317.77;51.92;;;;;;;;;;5031770;28;20048;-89
2021/12/04 08:09:58;;;;;;;377.45;53.88;;;;;;;;;;5049703;28;20111;-89
2021/12/04 08:12:23;;;;;;;233.48;44.75;;;;;;;;;;5049735;28;22023;-89
2021/12/04 08:14:48;;;;;;;260.10;47.20;;;;;;;;;;5035232;28;20106;-89
2021/12/04 08:17:14;;;;;;;206.13;45.03;;;;;;;;;;5053625;28;20393;-89
2021/12/04 08:19:39;;;;;;;241.17;45.10;;;;;;;;;;5053558;28;20021;-89
2021/12/04 08:22:05;;;;;;;269.60;46.90;;;;;;;;;;5035030;28;20413;-89
2021/12/04 08:24:30;;;;;;;283.08;47.20;;;;;;;;;;5035160;28;20032;-89
2021/12/04 08:26:55;;;;;;;287.02;45.83;;;;;;;;;;5034958;28;20032;-89
2021/12/04 08:29:21;;;;;;;369.00;50.90;;;;;;;;;;5053160;28;20440;-89
2021/12/04 08:31:47;;;;;;;213.38;43.90;;;;;;;;;;5036407;28;20044;-89
2021/12/04 08:34:12;;;;;;;315.98;47.63;;;;;;;;;;5052923;28;20029;-88
2021/12/04 08:36:37;;;;;;;153.30;39.90;;;;;;;;;;5053002;28;20081;-89
2021/12/04 08:39:04;;;;;;;214.57;44.15;;;;;;;;;;5052956;28;20841;-89
2021/12/04 08:41:29;;;;;;;205.18;45.33;;;;;;;;;;5052899;28;20021;-89
2021/12/04 08:43:55;;;;;;;168.40;40.25;;;;;;;;;;5034683;28;20101;-89
2021/12/04 08:46:20;;;;;;;242.15;46.03;;;;;;;;;;5052930;28;20021;-89
2021/12/04 08:48:47;;;;;;;186.77;41.80;;;;;;;;;;5034856;28;20021;-88
2021/12/04 08:51:12;;;;;;;134.50;38.63;;;;;;;;;;5034594;28;20031;-89
2021/12/04 08:53:38;;;;;;;167.60;39.67;;;;;;;;;;5052514;28;20481;-89
2021/12/04 08:56:03;;;;;;;122.10;37.42;;;;;;;;;;5034858;28;20025;-89
2021/12/04 08:58:28;;;;;;;102.50;32.40;;;;;;;;;;5052433;28;20079;-89
2021/12/04 09:00:57;;;;;;;93.25;33.05;;;;;;;;;;5034282;28;20021;-89
2021/12/04 09:03:24;;;;;;;110.55;32.78;;;;;;;;;;5034359;28;20056;-88
2021/12/04 09:05:50;;;;;;;122.88;34.05;;;;;;;;;;5035799;28;20029;-88
2021/12/04 09:08:16;;;;;;;101.25;31.42;;;;;;;;;;5052094;28;20035;-89
2021/12/04 09:10:43;;;;;;;87.22;29.65;;;;;;;;;;5052223;28;20108;-89
2021/12/04 09:13:09;;;;;;;126.03;33.40;;;;;;;;;;5034092;28;20187;-88
2021/12/04 09:15:36;;;;;;;92.30;29.30;;;;;;;;;;5052381;28;20061;-89
2021/12/04 09:18:02;;;;;;;106.80;29.02;;;;;;;;;;5045164;28;20017;-90
2021/12/04 09:20:29;;;;;;;89.18;26.38;;;;;;;;;;5052823;28;20029;-90
2021/12/04 09:22:55;;;;;;;68.30;23.77;;;;;;;;;;5034548;28;20021;-90
2021/12/04 09:25:22;;;;;;;77.28;26.17;;;;;;;;;;5034507;28;20020;-90
2021/12/04 09:28:02;;;;;;;66.78;25.45;;;;;;;;;;5034306;28;20029;-88
2021/12/04 10:21:38;;;;;;;37.75;18.25;;;;;;;;;;5050881;28;20059;-90
2021/12/04 10:32:07;;;;;;;51.95;24.13;;;;;;;;;;5071053;28;20036;-89
2021/12/04 10:34:34;;;;;;;48.25;24.27;;;;;;;;;;5071107;28;20033;-89
2021/12/04 10:37:05;;;;;;;53.85;24.55;;;;;;;;;;5070738;28;20028;-89
2021/12/04 10:39:30;;;;;;;49.42;24.15;;;;;;;;;;5052786;28;20388;-89
2021/12/04 10:41:56;;;;;;;50.17;23.08;;;;;;;;;;5053065;28;20028;-89
2021/12/04 10:44:23;;;;;;;58.80;26.10;;;;;;;;;;5058591;28;20488;-89
2021/12/04 10:47:00;;;;;;;48.90;23.70;;;;;;;;;;5070674;28;20039;-89
2021/12/04 10:49:30;;;;;;;53.42;25.95;;;;;;;;;;5070501;28;20021;-89
2021/12/04 10:52:02;;;;;;;57.22;25.67;;;;;;;;;;5070523;28;20035;-89
2021/12/04 10:54:38;;;;;;;62.80;26.98;;;;;;;;;;5052619;28;20043;-89
2021/12/04 10:59:58;;;;;;;60.95;26.50;;;;;;;;;;5070839;28;20013;-89
2021/12/04 11:02:33;;;;;;;90.55;32.80;;;;;;;;;;5071149;28;20089;-89
2021/12/04 11:05:15;;;;;;;66.68;29.02;;;;;;;;;;5070423;28;20024;-90
2021/12/04 11:18:38;;;;;;;75.93;31.38;;;;;;;;;;5070559;28;20027;-89
2021/12/04 11:19:24;;;;;;;75.93;32.70;;;;;;;;;;4988621;28;20026;-89
2021/12/04 11:27:25;;;;;;;54.05;29.08;;;;;;;;;;5070478;28;20123;-89
2021/12/04 11:43:04;;;;;;;44.78;20.13;;;;;;;;;;5070343;28;20415;-89
2021/12/04 11:45:48;;;;;;;52.28;19.70;;;;;;;;;;5052137;28;20099;-89
2021/12/04 11:48:13;;;;;;;59.55;20.90;;;;;;;;;;5053652;28;20037;-89
2021/12/04 11:50:40;;;;;;;56.47;19.92;;;;;;;;;;5055895;28;20028;-89
2021/12/04 11:53:16;;;;;;;37.78;18.25;;;;;;;;;;5073868;28;20391;-89
2021/12/04 11:55:44;;;;;;;34.55;17.02;;;;;;;;;;5056308;28;20120;-89
2021/12/04 11:58:17;;;;;;;40.03;18.67;;;;;;;;;;5055709;28;20020;-89
2021/12/04 12:00:42;;;;;;;40.00;17.85;;;;;;;;;;5055672;28;20024;-89
2021/12/04 12:03:08;;;;;;;61.10;20.58;;;;;;;;;;5074249;28;20035;-89
2021/12/04 12:05:41;;;;;;;61.85;21.30;;;;;;;;;;5056231;28;20516;-89
2021/12/04 12:08:06;;;;;;;88.60;23.73;;;;;;;;;;5055636;28;20032;-89
2021/12/04 12:10:32;;;;;;;65.85;22.15;;;;;;;;;;5073957;28;20693;-89
2021/12/04 12:13:04;;;;;;;53.40;21.10;;;;;;;;;;5055459;28;20594;-89
2021/12/04 12:15:33;;;;;;;39.08;18.05;;;;;;;;;;5055315;28;20048;-89
2021/12/04 12:18:15;;;;;;;46.30;20.25;;;;;;;;;;5073698;28;20028;-88
2021/12/04 12:20:44;;;;;;;42.15;19.30;;;;;;;;;;5073215;28;20020;-89
2021/12/04 12:23:11;;;;;;;49.67;19.92;;;;;;;;;;5055436;28;20020;-90
2021/12/04 12:37:18;;;;;;;80.28;22.08;;;;;;;;;;5076022;28;20510;-89
2021/12/04 12:40:02;;;;;;;41.72;19.15;;;;;;;;;;5054822;28;20028;-90
2021/12/04 12:42:38;;;;;;;45.28;19.80;;;;;;;;;;5055209;28;20024;-89
2021/12/04 12:45:17;;;;;;;79.18;22.02;;;;;;;;;;5072977;28;20020;-89
2021/12/04 12:47:53;;;;;;;73.32;21.48;;;;;;;;;;5073139;28;20480;-89
2021/12/04 12:50:34;;;;;;;68.28;22.15;;;;;;;;;;5073303;28;20078;-89
2021/12/04 12:53:04;;;;;;;43.05;18.90;;;;;;;;;;5055977;28;20040;-89
2021/12/04 12:55:34;;;;;;;57.20;20.42;;;;;;;;;;5074195;28;20013;-89
2021/12/04 12:58:10;;;;;;;43.97;18.63;;;;;;;;;;5073003;28;20017;-89
2021/12/04 13:12:13;;;;;;;74.25;22.00;;;;;;;;;;5072647;28;20135;-89
2021/12/04 13:14:42;;;;;;;80.20;23.70;;;;;;;;;;5035479;28;20045;-89
2021/12/04 13:17:09;;;;;;;65.85;21.70;;;;;;;;;;5052679;28;20045;-89
2021/12/04 13:19:37;;;;;;;48.53;19.83;;;;;;;;;;5034836;28;20037;-89
2021/12/04 13:22:04;;;;;;;91.70;23.90;;;;;;;;;;5053056;28;20020;-89
2021/12/04 13:24:31;;;;;;;67.32;23.33;;;;;;;;;;5034319;28;20013;-89
2021/12/04 13:26:57;;;;;;;57.38;20.83;;;;;;;;;;5052236;28;20025;-89
2021/12/04 13:29:24;;;;;;;48.20;19.02;;;;;;;;;;5034350;28;20025;-89
2021/12/04 13:31:56;;;;;;;38.05;17.08;;;;;;;;;;5052476;28;20024;-89
2021/12/04 13:34:22;;;;;;;53.05;20.10;;;;;;;;;;5051887;28;20075;-89
2021/12/04 13:36:48;;;;;;;54.28;19.63;;;;;;;;;;5052431;28;20016;-89
2021/12/04 13:39:14;;;;;;;42.67;19.52;;;;;;;;;;5033909;28;20103;-89
2021/12/04 13:41:40;;;;;;;48.90;20.05;;;;;;;;;;5035894;28;20052;-89
2021/12/04 13:44:07;;;;;;;47.75;19.00;;;;;;;;;;5033793;28;20120;-89
2021/12/04 13:46:39;;;;;;;41.53;19.38;;;;;;;;;;5036177;28;20025;-89
2021/12/04 13:49:04;;;;;;;47.67;20.15;;;;;;;;;;5034889;28;20426;-89
2021/12/04 13:51:30;;;;;;;48.75;19.90;;;;;;;;;;5033940;28;20067;-89
2021/12/04 13:53:55;;;;;;;48.10;19.02;;;;;;;;;;5051507;28;20040;-89
2021/12/04 13:56:24;;;;;;;66.97;22.70;;;;;;;;;;5051697;28;20389;-89
2021/12/04 13:58:49;;;;;;;59.33;21.77;;;;;;;;;;5033749;28;20420;-89
2021/12/04 14:01:15;;;;;;;48.80;19.08;;;;;;;;;;5051438;28;20029;-89
2021/12/04 14:03:40;;;;;;;51.80;20.50;;;;;;;;;;5033583;28;20017;-89
2021/12/04 14:06:13;;;;;;;45.67;19.17;;;;;;;;;;5051402;28;20021;-89
2021/12/04 14:08:38;;;;;;;65.53;22.77;;;;;;;;;;5034057;28;20400;-89
2021/12/04 14:11:03;;;;;;;55.28;22.05;;;;;;;;;;5051887;28;20032;-89
2021/12/04 14:13:29;;;;;;;53.22;21.40;;;;;;;;;;5052613;28;20033;-89
2021/12/04 14:15:57;;;;;;;56.35;21.80;;;;;;;;;;5062746;28;20154;-89
2021/12/04 14:18:23;;;;;;;67.28;21.90;;;;;;;;;;5053169;28;20111;-88
2021/12/04 14:20:50;;;;;;;47.33;21.63;;;;;;;;;;5052874;28;20443;-88
2021/12/04 14:23:15;;;;;;;67.97;23.58;;;;;;;;;;5053062;28;20031;-88
2021/12/04 14:25:44;;;;;;;59.65;22.75;;;;;;;;;;5071151;28;20029;-88
2021/12/04 14:28:14;;;;;;;59.03;22.45;;;;;;;;;;5052836;28;20056;-88
2021/12/04 14:30:44;;;;;;;66.13;25.00;;;;;;;;;;5052423;28;20013;-88
2021/12/04 14:33:10;;;;;;;77.97;26.90;;;;;;;;;;5052588;28;20039;-88
2021/12/04 14:35:37;;;;;;;91.22;29.80;;;;;;;;;;5052831;28;20025;-88
2021/12/04 14:38:03;;;;;;;60.13;25.17;;;;;;;;;;5052707;28;20026;-88
2021/12/04 14:40:33;;;;;;;81.47;28.00;;;;;;;;;;5070730;28;20029;-88
2021/12/04 14:42:59;;;;;;;92.32;29.15;;;;;;;;;;5053001;28;20627;-88
2021/12/04 14:45:27;;;;;;;64.72;26.55;;;;;;;;;;5070569;28;20067;-89
2021/12/04 14:48:03;;;;;;;64.15;25.80;;;;;;;;;;5052310;28;20048;-88
2021/12/04 14:50:29;;;;;;;85.63;29.75;;;;;;;;;;5070811;28;20673;-89
2021/12/04 14:52:57;;;;;;;66.95;27.77;;;;;;;;;;5070593;28;20099;-88
2021/12/04 14:55:24;;;;;;;89.60;31.50;;;;;;;;;;5072614;28;20021;-88
2021/12/04 14:57:50;;;;;;;79.68;32.42;;;;;;;;;;5052408;28;20036;-88
2021/12/04 15:00:19;;;;;;;70.30;29.60;;;;;;;;;;5052504;28;20067;-88
2021/12/04 15:02:48;;;;;;;93.25;32.50;;;;;;;;;;5052198;28;20515;-88
2021/12/04 15:05:23;;;;;;;83.90;32.92;;;;;;;;;;5052663;28;20572;-88
2021/12/04 15:07:58;;;;;;;69.00;28.98;;;;;;;;;;5052363;28;20028;-88
2021/12/04 15:10:23;;;;;;;86.55;32.55;;;;;;;;;;5054194;28;20020;-88
2021/12/04 15:12:49;;;;;;;98.23;33.30;;;;;;;;;;5052246;28;20094;-87
2021/12/04 15:15:16;;;;;;;66.28;29.67;;;;;;;;;;5051988;28;20333;-88
2021/12/04 15:17:51;;;;;;;95.80;34.08;;;;;;;;;;5070330;28;20029;-88
2021/12/04 15:20:20;;;;;;;89.60;33.88;;;;;;;;;;5070111;28;20016;-88
2021/12/04 15:22:48;;;;;;;74.50;30.15;;;;;;;;;;5052592;28;20032;-88
2021/12/04 15:25:15;;;;;;;83.18;33.58;;;;;;;;;;5056372;28;20515;-88
2021/12/04 15:27:41;;;;;;;103.47;35.53;;;;;;;;;;5056069;28;20465;-88
2021/12/04 15:30:10;;;;;;;67.38;30.52;;;;;;;;;;5074255;28;20107;-88
2021/12/04 15:32:37;;;;;;;68.63;29.98;;;;;;;;;;5055833;28;20016;-88
2021/12/04 15:35:14;;;;;;;70.07;30.38;;;;;;;;;;5057149;28;20028;-88
2021/12/04 15:37:49;;;;;;;67.43;28.95;;;;;;;;;;5075413;28;20032;-88
2021/12/04 15:40:25;;;;;;;87.53;32.88;;;;;;;;;;5058118;28;20031;-88
2021/12/04 15:42:59;;;;;;;76.13;31.67;;;;;;;;;;5056034;28;20024;-88
2021/12/04 15:45:37;;;;;;;77.03;33.95;;;;;;;;;;5074196;28;20025;-88
2021/12/04 15:53:35;;;;;;;71.72;30.48;;;;;;;;;;5035347;28;20049;-88
2021/12/04 15:56:00;;;;;;;66.47;30.00;;;;;;;;;;5074642;28;20025;-88
2021/12/04 15:58:28;;;;;;;63.58;29.77;;;;;;;;;;5075491;28;20048;-87
2021/12/04 16:00:55;;;;;;;62.60;29.73;;;;;;;;;;5056198;28;20020;-88
2021/12/04 16:03:24;;;;;;;74.50;31.23;;;;;;;;;;5054947;28;20021;-88
2021/12/04 16:05:52;;;;;;;73.82;32.30;;;;;;;;;;5039470;28;20108;-87
2021/12/04 16:08:19;;;;;;;73.22;31.52;;;;;;;;;;5053390;28;20033;-88
2021/12/04 16:10:46;;;;;;;74.03;33.22;;;;;;;;;;5052581;28;20734;-88
2021/12/04 16:13:15;;;;;;;60.90;30.55;;;;;;;;;;5052793;28;20067;-88
2021/12/04 16:15:41;;;;;;;74.03;32.38;;;;;;;;;;5034428;28;20432;-88
2021/12/04 16:18:07;;;;;;;82.22;34.83;;;;;;;;;;5034948;28;20025;-88
2021/12/04 16:20:33;;;;;;;76.05;33.83;;;;;;;;;;5034522;28;20025;-88
2021/12/04 16:22:59;;;;;;;76.32;35.30;;;;;;;;;;5034576;28;20024;-88
2021/12/04 16:25:25;;;;;;;76.05;37.00;;;;;;;;;;5059445;28;20013;-88
2021/12/04 16:28:05;;;;;;;80.25;37.05;;;;;;;;;;5054111;28;20025;-88
2021/12/04 16:30:52;;;;;;;76.28;37.45;;;;;;;;;;5054183;28;20020;-88
2021/12/04 16:35:54;;;;;;;90.18;40.90;;;;;;;;;;5070883;28;20120;-88
2021/12/04 16:38:21;;;;;;;64.15;34.22;;;;;;;;;;5039810;28;20123;-88
2021/12/04 16:40:46;;;;;;;73.03;37.33;;;;;;;;;;5054323;28;20048;-87
2021/12/04 16:43:31;;;;;;;72.05;36.70;;;;;;;;;;5035291;28;20025;-88
2021/12/04 16:45:57;;;;;;;71.80;38.33;;;;;;;;;;5034717;28;20864;-88
2021/12/04 16:48:26;;;;;;;70.15;36.78;;;;;;;;;;5048778;28;20016;-88
2021/12/04 16:57:07;;;;;;;56.65;32.35;;;;;;;;;;5064711;28;20032;-88
2021/12/04 16:58:51;;;;;;;59.20;34.17;;;;;;;;;;5047479;28;20036;-88
2021/12/04 17:01:16;;;;;;;56.22;31.83;;;;;;;;;;5066289;28;20419;-88
2021/12/04 17:03:42;;;;;;;60.95;34.55;;;;;;;;;;5033863;28;20013;-88
2021/12/04 17:06:08;;;;;;;60.53;34.30;;;;;;;;;;5034281;28;20021;-88
2021/12/04 17:08:33;;;;;;;60.70;34.03;;;;;;;;;;5034161;28;20025;-88
2021/12/04 17:10:59;;;;;;;56.13;33.00;;;;;;;;;;5051944;28;20025;-88
2021/12/04 17:13:24;;;;;;;56.05;33.25;;;;;;;;;;5052028;28;20096;-89
2021/12/04 17:15:49;;;;;;;60.65;33.72;;;;;;;;;;5033603;28;20140;-89
2021/12/04 17:18:16;;;;;;;66.03;34.45;;;;;;;;;;5067102;28;20024;-89